createdAt,value
2023-02-19T00:02:23.470Z,100467.53
2023-02-19T00:04:53.356Z,100470.22
2023-02-19T00:07:28.800Z,100464.00
2023-02-19T00:09:55.990Z,100465.62
2023-02-19T00:12:22.664Z,100464.84
2023-02-19T00:14:51.964Z,100449.75
2023-02-19T00:17:21.558Z,100449.75
2023-02-19T00:19:48.270Z,100448.94
2023-02-19T00:22:15.228Z,100455.13
2023-02-19T00:24:45.001Z,100458.91
2023-02-19T00:27:18.359Z,100464.31
2023-02-19T00:29:46.238Z,100460.81
2023-02-19T00:32:17.455Z,100465.41
2023-02-19T00:34:46.890Z,100462.19
2023-02-19T00:37:13.744Z,100453.03
2023-02-19T00:39:40.440Z,100457.59
2023-02-19T00:42:10.375Z,100457.59
2023-02-19T00:44:37.090Z,100444.44
2023-02-19T00:47:09.778Z,100458.69
2023-02-19T00:49:37.077Z,100449.28
2023-02-19T00:52:07.012Z,100445.53
2023-02-19T00:54:40.065Z,100447.41
2023-02-19T00:57:06.760Z,100445.00
2023-02-19T00:59:33.447Z,100438.03
2023-02-19T01:02:03.933Z,100435.31
2023-02-19T01:04:31.206Z,100435.31
2023-02-19T01:06:57.858Z,100438.31
2023-02-19T01:09:24.642Z,100428.34
2023-02-19T01:11:51.586Z,100438.31
2023-02-19T01:14:18.239Z,100436.69
2023-02-19T01:16:44.989Z,100436.69
2023-02-19T01:19:13.802Z,100433.19
2023-02-19T01:21:41.164Z,100435.09
2023-02-19T01:24:07.977Z,100445.06
2023-02-19T01:26:34.596Z,100432.69
2023-02-19T01:29:01.887Z,100424.91
2023-02-19T01:31:32.501Z,100431.06
2023-02-19T01:34:01.712Z,100424.09
2023-02-19T01:36:30.512Z,100427.88
2023-02-19T01:39:00.460Z,100411.75
2023-02-19T01:41:30.675Z,100416.31
2023-02-19T01:44:04.922Z,100410.16
2023-02-19T01:46:33.865Z,100415.78
2023-02-19T01:49:26.516Z,100417.69
2023-02-19T01:52:02.785Z,100416.09
2023-02-19T01:54:38.889Z,100411.50
2023-02-19T01:57:09.996Z,100404.53
2023-02-19T01:59:40.160Z,100398.34
2023-02-19T02:02:07.074Z,100395.12
2023-02-19T02:04:34.230Z,100388.66
2023-02-19T02:07:04.399Z,100388.94
2023-02-19T02:09:33.946Z,100399.72
2023-02-19T02:12:00.637Z,100397.31
2023-02-19T02:14:32.785Z,100402.69
2023-02-19T02:17:18.232Z,100395.69
2023-02-19T02:20:22.151Z,100383.31
2023-02-19T02:23:19.528Z,100386.28
2023-02-19T02:26:23.460Z,100380.91
2023-02-19T02:29:08.787Z,100374.75
2023-02-19T02:31:45.571Z,100371.53
2023-02-19T02:34:27.446Z,100368.81
2023-02-19T02:36:58.112Z,100363.44
2023-02-19T02:39:28.450Z,100365.59
2023-02-19T02:42:00.451Z,100362.91
2023-02-19T02:44:40.293Z,100360.53
2023-02-19T02:47:13.729Z,100353.25
2023-02-19T02:49:43.591Z,100348.97
2023-02-19T02:52:13.925Z,100350.06
2023-02-19T02:54:43.379Z,100352.75
2023-02-19T02:57:12.176Z,100354.91
2023-02-19T02:59:40.211Z,100344.16
2023-02-19T03:02:16.498Z,100347.62
2023-02-19T03:05:06.936Z,100349.53
2023-02-19T03:07:45.171Z,100346.34
2023-02-19T03:10:27.158Z,100346.34
2023-02-19T03:12:56.654Z,100337.75
2023-02-19T03:15:25.848Z,100340.44
2023-02-19T03:17:59.584Z,100337.75
2023-02-19T03:20:31.841Z,100336.16
2023-02-19T03:23:03.433Z,100352.28
2023-02-19T03:25:36.511Z,100346.91
2023-02-19T03:28:04.224Z,100339.09
2023-02-19T03:30:38.837Z,100336.16
2023-02-19T03:33:17.036Z,100339.09
2023-02-19T03:35:49.349Z,100343.19
2023-02-19T03:38:24.886Z,100345.87
2023-02-19T03:40:58.028Z,100344.28
2023-02-19T03:43:54.168Z,100355.84
2023-02-19T03:46:31.058Z,100355.84
2023-02-19T03:49:16.269Z,100359.59
2023-02-19T03:51:55.056Z,100371.44
2023-02-19T03:54:44.825Z,100373.34
2023-02-19T03:57:37.459Z,100370.66
2023-02-19T04:00:14.069Z,100375.53
2023-02-19T04:02:58.536Z,100377.38
2023-02-19T04:05:30.664Z,100365.03
2023-02-19T04:08:03.841Z,100363.44
2023-02-19T04:10:34.301Z,100368.03
2023-02-19T04:13:10.589Z,100355.37
2023-02-19T04:15:43.047Z,100342.19
2023-02-19T04:18:18.563Z,100340.59
2023-02-19T04:20:48.051Z,100340.59
2023-02-19T04:23:21.043Z,100349.47
2023-02-19T04:25:54.234Z,100347.06
2023-02-19T04:28:23.634Z,100348.66
2023-02-19T04:30:50.958Z,100355.13
2023-02-19T04:33:17.875Z,100345.47
2023-02-19T04:35:44.663Z,100351.91
2023-02-19T04:38:11.425Z,100343.34
2023-02-19T04:40:38.189Z,100351.41
2023-02-19T04:43:08.663Z,100354.91
2023-02-19T04:45:38.301Z,100351.72
2023-02-19T04:48:05.562Z,100349.28
2023-02-19T04:50:37.738Z,100361.63
2023-02-19T04:53:07.897Z,100362.72
2023-02-19T04:55:38.780Z,100345.81
2023-02-19T04:58:11.382Z,100346.91
2023-02-19T05:00:41.992Z,100354.16
2023-02-19T05:03:14.857Z,100363.03
2023-02-19T05:05:45.120Z,100363.59
2023-02-19T05:08:17.694Z,100349.84
2023-02-19T05:10:51.567Z,100355.22
2023-02-19T05:13:18.205Z,100344.47
2023-02-19T05:16:07.883Z,100363.03
2023-02-19T05:18:38.341Z,100367.59
2023-02-19T05:21:09.371Z,100364.91
2023-02-19T05:23:38.985Z,100364.62
2023-02-19T05:26:16.819Z,100365.41
2023-02-19T05:28:48.162Z,100356.56
2023-02-19T05:31:15.409Z,100358.44
2023-02-19T05:33:42.580Z,100355.81
2023-02-19T05:36:14.052Z,100361.03
2023-02-19T05:38:44.995Z,100350.16
2023-02-19T05:41:20.921Z,100348.06
2023-02-19T05:43:53.807Z,100347.56
2023-02-19T05:46:27.301Z,100334.63
2023-02-19T05:48:57.846Z,100341.87
2023-02-19T05:51:28.060Z,100338.37
2023-02-19T05:53:56.853Z,100338.59
2023-02-19T05:56:42.362Z,100331.84
2023-02-19T05:59:24.163Z,100345.53
2023-02-19T06:01:54.665Z,100348.47
2023-02-19T06:04:28.055Z,100340.91
2023-02-19T06:06:57.834Z,100333.38
2023-02-19T06:09:33.470Z,100332.81
2023-02-19T06:12:03.455Z,100332.25
2023-02-19T06:14:33.584Z,100335.97
2023-02-19T06:17:02.973Z,100338.87
2023-02-19T06:19:35.734Z,100334.31
2023-02-19T06:22:02.761Z,100345.56
2023-02-19T06:24:34.028Z,100344.22
2023-02-19T06:27:02.942Z,100343.13
2023-02-19T06:29:31.052Z,100336.94
2023-02-19T06:32:04.966Z,100328.34
2023-02-19T06:34:45.163Z,100321.38
2023-02-19T06:37:15.548Z,100322.72
2023-02-19T06:39:45.757Z,100322.53
2023-02-19T06:42:19.257Z,100339.78
2023-02-19T06:44:52.040Z,100344.34
2023-02-19T06:47:19.780Z,100340.34
2023-02-19T06:49:53.226Z,100330.16
2023-02-19T06:52:20.232Z,100326.41
2023-02-19T06:54:50.292Z,100318.87
2023-02-19T06:57:17.466Z,100322.63
2023-02-19T06:59:48.439Z,100326.41
2023-02-19T07:02:15.517Z,100322.09
2023-02-19T07:04:48.556Z,100327.47
2023-02-19T07:07:15.216Z,100336.06
2023-02-19T07:09:49.132Z,100334.97
2023-02-19T07:12:16.003Z,100342.75
2023-02-19T07:14:46.473Z,100342.47
2023-02-19T07:17:16.865Z,100358.31
2023-02-19T07:19:46.857Z,100358.03
2023-02-19T07:22:13.856Z,100365.53
2023-02-19T07:24:41.357Z,100361.75
2023-02-19T07:27:12.487Z,100357.97
2023-02-19T07:29:39.483Z,100360.66
2023-02-19T07:32:13.082Z,100364.38
2023-02-19T07:34:40.260Z,100368.66
2023-02-19T07:37:10.615Z,100351.47
2023-02-19T07:39:37.786Z,100342.31
2023-02-19T07:42:04.834Z,100339.34
2023-02-19T07:44:31.707Z,100339.06
2023-02-19T07:47:01.923Z,100328.00
2023-02-19T07:49:28.880Z,100326.66
2023-02-19T07:51:55.702Z,100326.66
2023-02-19T07:54:29.904Z,100327.16
2023-02-19T07:56:56.998Z,100320.69
2023-02-19T07:59:23.823Z,100317.72
2023-02-19T08:01:50.694Z,100326.03
2023-02-19T08:04:17.707Z,100323.34
2023-02-19T08:06:47.534Z,100329.81
2023-02-19T08:09:20.857Z,100330.31
2023-02-19T08:11:47.624Z,100331.41
2023-02-19T08:14:14.687Z,100324.63
2023-02-19T08:16:48.870Z,100336.22
2023-02-19T08:19:15.505Z,100343.19
2023-02-19T08:21:42.127Z,100339.41
2023-02-19T08:24:08.979Z,100341.78
2023-02-19T08:26:38.581Z,100350.69
2023-02-19T08:29:08.633Z,100353.38
2023-02-19T08:31:37.896Z,100348.50
2023-02-19T08:34:04.668Z,100337.75
2023-02-19T08:36:31.248Z,100326.97
2023-02-19T08:39:01.025Z,100324.03
2023-02-19T08:41:27.802Z,100319.44
2023-02-19T08:43:54.448Z,100340.97
2023-02-19T08:46:21.266Z,100348.75
2023-02-19T08:48:48.009Z,100358.94
2023-02-19T08:51:15.808Z,100350.06
2023-02-19T08:53:42.695Z,100360.53
2023-02-19T08:56:12.052Z,100349.25
2023-02-19T08:58:39.261Z,100342.00
2023-02-19T09:01:15.736Z,100359.72
2023-02-19T09:03:43.066Z,100359.72
2023-02-19T09:06:18.965Z,100368.28
2023-02-19T09:08:45.742Z,100368.28
2023-02-19T09:11:13.006Z,100366.13
2023-02-19T09:13:44.081Z,100358.06
2023-02-19T09:16:11.972Z,100359.16
2023-02-19T09:18:38.636Z,100349.19
2023-02-19T09:21:12.381Z,100343.03
2023-02-19T09:23:39.179Z,100339.22
2023-02-19T09:26:09.893Z,100334.38
2023-02-19T09:28:36.817Z,100322.78
2023-02-19T09:31:07.174Z,100335.97
2023-02-19T09:33:34.062Z,100320.94
2023-02-19T09:36:04.576Z,100339.75
2023-02-19T09:38:33.878Z,100345.16
2023-02-19T09:41:07.907Z,100359.41
2023-02-19T09:43:35.313Z,100349.44
2023-02-19T09:46:23.958Z,100342.94
2023-02-19T09:48:56.251Z,100326.53
2023-02-19T09:51:25.076Z,100331.66
2023-02-19T09:54:00.870Z,100341.53
2023-02-19T09:56:30.548Z,100338.56
2023-02-19T09:58:59.419Z,100338.56
2023-02-19T10:01:34.279Z,100341.22
2023-02-19T10:04:01.002Z,100337.41
2023-02-19T10:06:29.065Z,100351.38
2023-02-19T10:09:27.641Z,100341.44
2023-02-19T10:11:56.239Z,100334.66
2023-02-19T10:14:37.266Z,100344.84
2023-02-19T10:17:06.502Z,100338.37
2023-02-19T10:19:35.209Z,100335.09
2023-02-19T10:22:05.260Z,100337.78
2023-02-19T10:24:32.261Z,100354.47
2023-02-19T10:27:06.880Z,100340.41
2023-02-19T10:29:33.742Z,100339.34
2023-02-19T10:32:14.526Z,100336.34
2023-02-19T10:34:41.958Z,100331.75
2023-02-19T10:37:17.433Z,100327.41
2023-02-19T10:39:55.810Z,100327.41
2023-02-19T10:42:26.958Z,100322.53
2023-02-19T10:45:02.921Z,100322.53
2023-02-19T10:47:32.213Z,100323.03
2023-02-19T10:50:04.836Z,100318.75
2023-02-19T10:52:37.952Z,100316.84
2023-02-19T10:55:24.598Z,100322.25
2023-02-19T10:57:52.033Z,100323.03
2023-02-19T11:00:30.857Z,100302.28
2023-02-19T11:03:14.395Z,100299.91
2023-02-19T11:05:53.507Z,100289.13
2023-02-19T11:08:25.348Z,100286.75
2023-02-19T11:10:55.357Z,100290.50
2023-02-19T11:13:36.189Z,100284.84
2023-02-19T11:16:09.421Z,100272.97
2023-02-19T11:18:39.226Z,100270.78
2023-02-19T11:21:11.704Z,100270.22
2023-02-19T11:23:50.974Z,100275.00
2023-02-19T11:26:27.165Z,100290.59
2023-02-19T11:28:58.043Z,100288.37
2023-02-19T11:31:32.889Z,100278.16
2023-02-19T11:34:02.132Z,100269.75
2023-02-19T11:36:35.066Z,100271.09
2023-02-19T11:39:21.971Z,100275.88
2023-02-19T11:41:53.734Z,100271.50
2023-02-19T11:44:26.136Z,100268.50
2023-02-19T11:47:25.096Z,100274.13
2023-02-19T11:50:14.601Z,100282.72
2023-02-19T11:53:11.384Z,100286.47
2023-02-19T11:56:05.090Z,100294.56
2023-02-19T11:58:55.980Z,100287.59
2023-02-19T12:01:53.903Z,100284.87
2023-02-19T12:04:51.405Z,100285.69
2023-02-19T12:07:36.631Z,100277.31
2023-02-19T12:10:06.004Z,100283.78
2023-02-19T12:13:14.385Z,100287.59
2023-02-19T12:16:22.576Z,100284.87
2023-02-19T12:19:09.469Z,100290.28
2023-02-19T12:21:42.159Z,100284.87
2023-02-19T12:24:32.136Z,100284.09
2023-02-19T12:27:31.113Z,100287.06
2023-02-19T12:30:13.223Z,100308.59
2023-02-19T12:32:46.310Z,100317.88
2023-02-19T12:35:30.333Z,100310.94
2023-02-19T12:38:20.596Z,100302.38
2023-02-19T12:40:50.055Z,100309.44
2023-02-19T12:43:24.198Z,100305.22
2023-02-19T12:46:12.595Z,100297.13
2023-02-19T12:48:39.559Z,100295.25
2023-02-19T12:51:18.484Z,100298.53
2023-02-19T12:53:52.939Z,100298.31
2023-02-19T12:56:47.709Z,100295.63
2023-02-19T12:59:14.613Z,100292.94
2023-02-19T13:04:40.908Z,100294.97
2023-02-19T13:07:34.000Z,100283.63
2023-02-19T13:10:24.210Z,100281.41
2023-02-19T13:12:58.871Z,100275.44
2023-02-19T13:15:39.626Z,100269.06
2023-02-19T13:18:19.702Z,100259.66
2023-02-19T13:20:50.495Z,100251.88
2023-02-19T13:23:37.234Z,100258.84
2023-02-19T13:26:31.852Z,100266.63
2023-02-19T13:29:25.935Z,100262.06
2023-02-19T13:32:23.674Z,100265.25
2023-02-19T13:35:29.247Z,100263.38
2023-02-19T13:40:38.596Z,100246.94
2023-02-19T13:43:25.674Z,100270.06
2023-02-19T13:46:03.427Z,100259.78
2023-02-19T13:48:33.779Z,100265.47
2023-02-19T13:51:16.571Z,100267.87
2023-02-19T13:53:43.088Z,100271.09
2023-02-19T13:56:45.593Z,100266.19
2023-02-19T13:59:24.136Z,100260.53
2023-02-19T14:01:54.164Z,100265.13
2023-02-19T14:04:43.834Z,100268.31
2023-02-19T14:07:10.579Z,100263.28
2023-02-19T14:09:37.195Z,100263.59
2023-02-19T14:12:17.567Z,100256.88
2023-02-19T14:14:48.001Z,100261.47
2023-02-19T14:17:32.822Z,100264.69
2023-02-19T14:20:22.598Z,100272.84
2023-02-19T14:22:59.349Z,100277.13
2023-02-19T14:25:29.098Z,100283.63
2023-02-19T14:28:10.273Z,100281.41
2023-02-19T14:31:04.399Z,100285.13
2023-02-19T14:33:37.852Z,100284.81
2023-02-19T14:36:23.247Z,100278.06
2023-02-19T14:39:05.573Z,100276.69
2023-02-19T14:41:37.202Z,100284.47
2023-02-19T14:44:06.873Z,100289.56
2023-02-19T14:46:45.270Z,100294.66
2023-02-19T14:49:19.342Z,100301.94
2023-02-19T14:51:50.958Z,100297.34
2023-02-19T14:54:34.478Z,100309.22
2023-02-19T14:57:08.136Z,100311.37
2023-02-19T14:59:47.075Z,100314.75
2023-02-19T15:02:17.497Z,100322.31
2023-02-19T15:04:48.034Z,100319.41
2023-02-19T15:07:20.542Z,100327.75
2023-02-19T15:09:53.143Z,100321.87
2023-02-19T15:12:29.672Z,100331.34
2023-02-19T15:17:36.315Z,100341.81
2023-02-19T15:20:22.218Z,100335.41
2023-02-19T15:22:49.751Z,100334.59
2023-02-19T15:25:22.718Z,100339.19
2023-02-19T15:27:49.556Z,100347.00
2023-02-19T15:30:21.998Z,100353.19
2023-02-19T15:35:20.861Z,100361.25
2023-02-19T15:37:47.712Z,100360.16
2023-02-19T15:42:49.853Z,100367.72
2023-02-19T15:45:40.652Z,100374.72
2023-02-19T15:48:18.570Z,100374.19
2023-02-19T15:50:54.110Z,100375.28
2023-02-19T15:53:31.237Z,100376.88
2023-02-19T15:56:13.360Z,100389.84
2023-02-19T15:58:54.299Z,100395.22
2023-02-19T16:01:49.558Z,100408.16
2023-02-19T16:04:19.077Z,100397.41
2023-02-19T16:06:56.014Z,100400.38
2023-02-19T16:09:31.833Z,100407.13
2023-02-19T16:12:02.893Z,100406.87
2023-02-19T16:14:37.649Z,100403.34
2023-02-19T16:17:10.534Z,100408.22
2023-02-19T16:19:54.873Z,100404.22
2023-02-19T16:22:28.028Z,100406.13
2023-02-19T16:24:58.698Z,100407.22
2023-02-19T16:27:33.477Z,100413.37
2023-02-19T16:30:28.459Z,100412.06
2023-02-19T16:33:20.664Z,100412.06
2023-02-19T16:35:48.623Z,100418.53
2023-02-19T16:38:20.420Z,100428.81
2023-02-19T16:40:49.925Z,100434.19
2023-02-19T16:43:30.909Z,100435.25
2023-02-19T16:46:01.794Z,100438.25
2023-02-19T16:48:28.534Z,100447.69
2023-02-19T16:50:55.345Z,100455.25
2023-02-19T16:53:27.359Z,100465.31
2023-02-19T16:55:54.083Z,100471.03
2023-02-19T16:58:21.199Z,100475.84
2023-02-19T17:00:47.972Z,100479.09
2023-02-19T17:03:20.281Z,100494.97
2023-02-19T17:06:11.557Z,100505.97
2023-02-19T17:09:16.992Z,100503.78
2023-02-19T17:11:47.433Z,100517.78
2023-02-19T17:14:40.887Z,100521.78
2023-02-19T17:17:12.554Z,100525.78
2023-02-19T17:19:42.476Z,100530.09
2023-02-19T17:22:09.246Z,100538.94
2023-02-19T17:24:36.168Z,100551.63
2023-02-19T17:27:04.434Z,100549.22
2023-02-19T17:29:34.217Z,100557.56
2023-02-19T17:32:10.510Z,100567.25
2023-02-19T17:34:43.179Z,100588.78
2023-02-19T17:37:13.043Z,100585.56
2023-02-19T17:39:39.855Z,100594.44
2023-02-19T17:42:12.593Z,100596.31
2023-02-19T17:44:39.981Z,100607.09
2023-02-19T17:47:11.967Z,100623.22
2023-02-19T17:49:41.310Z,100627.00
2023-02-19T17:52:14.332Z,100622.44
2023-02-19T17:54:42.563Z,100632.41
2023-02-19T17:57:09.408Z,100625.41
2023-02-19T17:59:45.248Z,100646.94
2023-02-19T18:02:18.820Z,100644.81
2023-02-19T18:04:45.669Z,100658.25
2023-02-19T18:07:17.000Z,100651.28
2023-02-19T18:09:44.299Z,100665.78
2023-02-19T18:12:11.764Z,100665.78
2023-02-19T18:14:41.064Z,100658.84
2023-02-19T18:17:11.347Z,100665.84
2023-02-19T18:19:42.945Z,100682.53
2023-02-19T18:22:12.443Z,100687.91
2023-02-19T18:24:45.687Z,100700.56
2023-02-19T18:27:16.092Z,100713.22
2023-02-19T18:30:05.539Z,100716.44
2023-02-19T18:32:35.906Z,100725.03
2023-02-19T18:35:06.500Z,100729.88
2023-02-19T18:37:38.197Z,100735.25
2023-02-19T18:40:09.475Z,100740.09
2023-02-19T18:42:44.231Z,100740.62
2023-02-19T18:45:51.837Z,100749.22
2023-02-19T18:48:22.030Z,100755.94
2023-02-19T18:50:51.874Z,100752.94
2023-02-19T18:53:21.208Z,100771.78
2023-02-19T18:55:48.080Z,100770.72
2023-02-19T18:58:21.481Z,100791.16
2023-02-19T19:00:54.653Z,100795.47
2023-02-19T19:03:25.265Z,100797.06
2023-02-19T19:05:58.674Z,100781.75
2023-02-19T19:08:30.586Z,100787.62
2023-02-19T19:11:04.488Z,100774.19
2023-02-19T19:13:37.115Z,100781.97
2023-02-19T19:16:04.304Z,100799.75
2023-02-19T19:18:36.921Z,100797.56
2023-02-19T19:21:12.131Z,100806.72
2023-02-19T19:23:41.927Z,100809.94
2023-02-19T19:26:10.068Z,100822.34
2023-02-19T19:29:19.070Z,100816.94
2023-02-19T19:31:49.898Z,100805.38
2023-02-19T19:34:22.036Z,100809.94
2023-02-19T19:36:52.406Z,100831.47
2023-02-19T19:39:22.348Z,100852.19
2023-02-19T19:42:01.574Z,100854.63
2023-02-19T19:44:31.962Z,100861.63
2023-02-19T19:47:03.265Z,100870.25
2023-02-19T19:49:36.037Z,100872.62
2023-02-19T19:52:03.954Z,100887.44
2023-02-19T19:54:50.332Z,100888.00
2023-02-19T19:57:17.131Z,100883.16
2023-02-19T19:59:52.762Z,100890.94
2023-02-19T20:02:25.493Z,100895.53
2023-02-19T20:04:55.106Z,100891.78
2023-02-19T20:07:28.196Z,100885.56
2023-02-19T20:09:58.254Z,100893.38
2023-02-19T20:12:28.277Z,100890.13
2023-02-19T20:15:01.458Z,100888.00
2023-02-19T20:17:31.714Z,100878.81
2023-02-19T20:20:05.604Z,100883.66
2023-02-19T20:22:35.735Z,100889.06
2023-02-19T20:25:09.917Z,100884.47
2023-02-19T20:27:40.239Z,100872.59
2023-02-19T20:30:11.778Z,100875.03
2023-02-19T20:32:43.945Z,100871.25
2023-02-19T20:35:17.358Z,100863.19
2023-02-19T20:37:47.052Z,100869.66
2023-02-19T20:40:17.040Z,100872.34
2023-02-19T20:42:50.381Z,100863.19
2023-02-19T20:45:20.714Z,100857.81
2023-02-19T20:47:53.410Z,100870.16
2023-02-19T20:50:20.440Z,100869.38
2023-02-19T20:52:50.740Z,100868.56
2023-02-19T20:55:20.495Z,100877.44
2023-02-19T20:57:47.174Z,100875.03
2023-02-19T21:00:16.690Z,100881.50
2023-02-19T21:02:49.098Z,100876.09
2023-02-19T21:05:22.265Z,100883.38
2023-02-19T21:07:57.291Z,100892.25
2023-02-19T21:10:27.556Z,100896.84
2023-02-19T21:13:01.015Z,100899.53
2023-02-19T21:15:31.279Z,100904.13
2023-02-19T21:18:03.888Z,100901.41
2023-02-19T21:20:31.472Z,100912.19
2023-02-19T21:23:04.958Z,100909.22
2023-02-19T21:25:31.906Z,100912.19
2023-02-19T21:27:59.378Z,100924.56
2023-02-19T21:30:28.511Z,100910.59
2023-02-19T21:32:55.317Z,100915.16
2023-02-19T21:35:25.123Z,100922.16
2023-02-19T21:37:55.560Z,100921.34
2023-02-19T21:40:25.857Z,100917.56
2023-02-19T21:42:52.496Z,100915.16
2023-02-19T21:45:19.973Z,100906.28
2023-02-19T21:47:46.684Z,100908.97
2023-02-19T21:50:13.406Z,100914.38
2023-02-19T21:52:46.340Z,100907.34
2023-02-19T21:55:13.018Z,100901.97
2023-02-19T21:57:40.769Z,100914.38
2023-02-19T22:00:12.009Z,100927.81
2023-02-19T22:02:43.904Z,100927.28
2023-02-19T22:05:10.645Z,100931.06
2023-02-19T22:07:37.813Z,100931.06
2023-02-19T22:10:11.981Z,100924.87
2023-02-19T22:12:42.585Z,100951.00
2023-02-19T22:15:12.703Z,100946.66
2023-02-19T22:17:39.584Z,100963.63
2023-02-19T22:20:06.961Z,100964.72
2023-02-19T22:22:36.250Z,100969.28
2023-02-19T22:25:03.046Z,100986.25
2023-02-19T22:27:29.707Z,100973.88
2023-02-19T22:29:56.448Z,100984.62
2023-02-19T22:32:23.406Z,100983.84
2023-02-19T22:34:50.741Z,100983.84
2023-02-19T22:37:20.597Z,100997.28
2023-02-19T22:39:51.060Z,100995.94
2023-02-19T22:42:24.017Z,101002.94
2023-02-19T22:44:53.516Z,101007.50
2023-02-19T22:47:22.449Z,100992.97
2023-02-19T22:49:55.666Z,101002.13
2023-02-19T22:52:22.285Z,101010.19
2023-02-19T22:54:54.032Z,101007.50
2023-02-19T22:57:24.019Z,101009.69
2023-02-19T22:59:53.878Z,101015.06
2023-02-19T23:02:26.285Z,101022.34
2023-02-19T23:04:53.953Z,101022.59
2023-02-19T23:07:21.314Z,101034.16
2023-02-19T23:09:53.996Z,101034.97
2023-02-19T23:12:23.630Z,101038.75
2023-02-19T23:14:56.347Z,101047.91
2023-02-19T23:17:23.105Z,101047.91
2023-02-19T23:19:53.683Z,101053.28
2023-02-19T23:22:26.231Z,101050.03
2023-02-19T23:24:58.934Z,101057.06
2023-02-19T23:27:29.084Z,101064.59
2023-02-19T23:29:56.491Z,101076.97
2023-02-19T23:32:25.929Z,101075.34
2023-02-19T23:34:59.776Z,101065.38
2023-02-19T23:37:27.693Z,101069.16
2023-02-19T23:39:56.540Z,101086.12
2023-02-19T23:42:28.962Z,101096.09
2023-02-19T23:44:58.826Z,101084.50
2023-02-19T23:47:34.749Z,101099.06
2023-02-19T23:50:07.210Z,101089.09
2023-02-19T23:52:39.797Z,101096.38
2023-02-19T23:55:11.646Z,101102.78
2023-02-19T23:57:38.529Z,101100.09
